createdAt,value
2022-08-17T00:06:12.103Z,18.49
2022-08-17T00:13:16.673Z,18.52
2022-08-17T00:20:20.538Z,18.53
2022-08-17T00:27:33.589Z,18.42
2022-08-17T00:34:35.815Z,18.31
2022-08-17T00:41:42.260Z,18.20
2022-08-17T00:48:45.047Z,18.05
2022-08-17T00:55:47.285Z,17.89
2022-08-17T01:02:50.938Z,17.81
2022-08-17T01:09:53.318Z,17.63
2022-08-17T01:16:55.590Z,17.46
2022-08-17T01:23:59.615Z,17.00
2022-08-17T01:31:03.263Z,16.76
2022-08-17T01:38:05.849Z,16.77
2022-08-17T01:45:12.077Z,16.82
2022-08-17T01:52:14.459Z,16.75
2022-08-17T01:59:16.872Z,16.87
2022-08-17T02:06:27.603Z,16.93
2022-08-17T02:13:30.793Z,16.75
2022-08-17T02:20:41.568Z,16.82
2022-08-17T02:27:46.804Z,16.94
2022-08-17T02:34:49.161Z,16.87
2022-08-17T02:41:57.003Z,16.88
2022-08-17T02:49:00.808Z,17.06
2022-08-17T02:56:03.418Z,17.14
2022-08-17T03:03:05.860Z,17.16
2022-08-17T03:10:10.185Z,17.29
2022-08-17T03:17:17.140Z,17.34
2022-08-17T03:24:19.782Z,17.29
2022-08-17T03:31:23.440Z,17.21
2022-08-17T03:38:25.806Z,17.26
2022-08-17T03:45:46.969Z,17.29
2022-08-17T03:53:09.220Z,17.05
2022-08-17T04:00:13.454Z,16.90
2022-08-17T04:07:15.694Z,16.62
2022-08-17T04:14:19.324Z,16.57
2022-08-17T04:21:21.593Z,16.67
2022-08-17T04:28:23.908Z,16.83
2022-08-17T04:35:28.600Z,16.90
2022-08-17T04:42:33.244Z,17.06
2022-08-17T04:49:35.491Z,17.14
2022-08-17T04:56:39.124Z,17.07
2022-08-17T05:03:41.931Z,17.22
2022-08-17T05:10:45.171Z,17.49
2022-08-17T05:17:49.317Z,18.04
2022-08-17T05:24:53.749Z,18.90
2022-08-17T05:31:57.949Z,20.27
2022-08-17T05:39:01.672Z,20.86
2022-08-17T05:46:06.340Z,20.00
2022-08-17T05:53:10.844Z,21.09
2022-08-17T06:00:20.148Z,22.35
2022-08-17T06:07:25.910Z,22.62
2022-08-17T06:14:33.598Z,23.10
2022-08-17T06:21:39.430Z,23.00
2022-08-17T06:28:43.420Z,23.91
2022-08-17T06:35:51.134Z,24.65
2022-08-17T06:43:05.300Z,24.13
2022-08-17T06:50:14.644Z,24.53
2022-08-17T06:57:19.533Z,24.29
2022-08-17T07:04:27.021Z,24.35
2022-08-17T07:11:33.923Z,25.15
2022-08-17T07:18:36.263Z,24.94
2022-08-17T07:25:40.131Z,25.40
2022-08-17T07:32:47.155Z,25.80
2022-08-17T07:40:15.550Z,26.80
2022-08-17T07:47:33.362Z,27.27
2022-08-17T07:54:36.830Z,26.94
2022-08-17T08:01:41.988Z,27.95
2022-08-17T08:08:50.487Z,27.92
2022-08-17T08:15:54.758Z,28.62
2022-08-17T08:23:02.521Z,28.25
2022-08-17T08:30:08.474Z,28.52
2022-08-17T08:37:18.064Z,28.23
2022-08-17T08:45:03.809Z,27.95
2022-08-17T08:51:58.963Z,28.73
2022-08-17T08:59:03.554Z,29.39
2022-08-17T09:06:33.313Z,28.92
2022-08-17T09:13:39.580Z,29.30
2022-08-17T09:20:49.911Z,29.17
2022-08-17T09:27:55.651Z,28.60
2022-08-17T09:35:01.897Z,28.16
2022-08-17T09:42:06.683Z,27.48
2022-08-17T09:49:10.655Z,27.14
2022-08-17T09:56:21.374Z,26.71
2022-08-17T10:03:32.361Z,26.67
2022-08-17T10:10:37.245Z,26.78
2022-08-17T10:17:50.568Z,27.70
2022-08-17T10:25:23.186Z,27.48
2022-08-17T10:32:28.326Z,28.19
2022-08-17T10:39:51.810Z,28.01
2022-08-17T10:47:02.832Z,27.35
2022-08-17T10:54:05.441Z,26.35
2022-08-17T11:01:12.719Z,25.01
2022-08-17T11:08:44.888Z,24.40
2022-08-17T11:15:51.463Z,24.43
2022-08-17T11:23:25.903Z,24.68
2022-08-17T11:30:47.042Z,24.77
2022-08-17T11:37:55.435Z,24.31
2022-08-17T11:44:59.764Z,24.34
2022-08-17T11:52:14.770Z,23.85
2022-08-17T11:59:58.815Z,24.21
2022-08-17T12:07:06.729Z,24.72
2022-08-17T12:14:10.762Z,24.92
2022-08-17T12:21:24.352Z,24.71
2022-08-17T12:28:28.854Z,26.21
2022-08-17T12:35:35.146Z,27.12
2022-08-17T12:42:39.230Z,27.88
2022-08-17T12:49:43.065Z,28.77
2022-08-17T12:56:45.491Z,29.58
2022-08-17T13:03:51.162Z,28.66
2022-08-17T13:10:56.472Z,27.39
2022-08-17T13:18:03.983Z,26.87
2022-08-17T13:25:09.397Z,27.11
2022-08-17T13:32:19.897Z,27.14
2022-08-17T13:39:23.512Z,27.28
2022-08-17T13:46:28.557Z,27.13
2022-08-17T13:53:35.342Z,27.57
2022-08-17T14:00:40.313Z,27.55
2022-08-17T14:07:42.551Z,27.74
2022-08-17T14:14:46.350Z,27.97
2022-08-17T14:21:48.928Z,27.62
2022-08-17T14:28:56.254Z,27.37
2022-08-17T14:36:02.912Z,27.89
2022-08-17T14:43:05.137Z,28.14
2022-08-17T14:50:11.302Z,28.13
2022-08-17T14:57:33.085Z,27.64
2022-08-17T15:04:36.160Z,27.35
2022-08-17T15:11:39.516Z,27.38
2022-08-17T15:18:43.180Z,27.35
2022-08-17T15:25:48.336Z,27.52
2022-08-17T15:32:54.946Z,27.41
2022-08-17T15:40:02.078Z,27.36
2022-08-17T15:47:04.555Z,27.49
2022-08-17T15:54:19.377Z,27.38
2022-08-17T16:01:40.509Z,27.07
2022-08-17T16:08:49.559Z,27.14
2022-08-17T16:15:57.197Z,27.14
2022-08-17T16:23:01.078Z,27.06
2022-08-17T16:30:03.862Z,26.93
2022-08-17T16:37:06.149Z,26.61
2022-08-17T16:44:09.958Z,26.26
2022-08-17T16:51:17.943Z,26.20
2022-08-17T16:58:21.819Z,26.06
2022-08-17T17:05:33.133Z,25.97
2022-08-17T17:13:03.310Z,25.95
2022-08-17T17:20:00.625Z,25.87
2022-08-17T17:27:10.948Z,25.42
2022-08-17T17:34:14.332Z,25.35
2022-08-17T17:41:25.316Z,25.47
2022-08-17T17:48:29.843Z,25.41
2022-08-17T17:55:36.761Z,25.27
2022-08-17T18:02:51.257Z,25.01
2022-08-17T18:10:03.173Z,24.82
2022-08-17T18:17:06.275Z,24.57
2022-08-17T18:24:10.645Z,24.36
2022-08-17T18:31:20.692Z,24.23
2022-08-17T18:38:28.996Z,23.93
2022-08-17T18:45:33.496Z,23.75
2022-08-17T18:52:37.069Z,23.52
2022-08-17T18:59:40.582Z,23.35
2022-08-17T19:06:42.879Z,23.16
2022-08-17T19:13:50.077Z,23.13
2022-08-17T19:20:56.256Z,22.98
2022-08-17T19:28:04.025Z,22.91
2022-08-17T19:35:20.044Z,22.92
2022-08-17T19:42:31.020Z,22.83
2022-08-17T19:49:41.397Z,22.91
2022-08-17T19:56:55.561Z,22.90
2022-08-17T20:04:00.092Z,22.85
2022-08-17T20:11:03.235Z,22.69
2022-08-17T20:18:10.901Z,22.62
2022-08-17T20:25:15.805Z,22.46
2022-08-17T20:32:25.189Z,22.39
2022-08-17T20:39:34.600Z,22.31
2022-08-17T20:47:03.706Z,22.20
2022-08-17T20:54:28.116Z,22.24
2022-08-17T21:01:39.725Z,22.16
2022-08-17T21:08:53.343Z,22.02
2022-08-17T21:15:58.897Z,22.01
2022-08-17T21:23:24.307Z,22.15
2022-08-17T21:30:46.934Z,22.21
2022-08-17T21:37:50.492Z,22.37
2022-08-17T21:44:55.553Z,22.47
2022-08-17T21:51:57.845Z,22.07
2022-08-17T21:59:01.705Z,21.95
2022-08-17T22:06:21.469Z,21.85
2022-08-17T22:13:24.385Z,22.07
2022-08-17T22:20:32.141Z,22.18
2022-08-17T22:27:49.422Z,21.84
2022-08-17T22:35:19.895Z,20.96
2022-08-17T22:42:22.116Z,20.39
2022-08-17T22:49:29.191Z,19.88
2022-08-17T22:56:50.396Z,19.26
2022-08-17T23:03:54.869Z,19.06
2022-08-17T23:11:00.258Z,18.94
2022-08-17T23:18:05.046Z,18.21
2022-08-17T23:25:08.217Z,17.81
2022-08-17T23:32:13.512Z,17.57
2022-08-17T23:39:15.732Z,17.48
2022-08-17T23:46:27.125Z,17.43
2022-08-17T23:53:30.823Z,17.30
